createdAt,value
2017-12-20T18:08:13.850Z,30.54
2017-12-20T18:08:42.511Z,30.64
2017-12-20T18:09:40.508Z,30.55
2017-12-20T18:11:23.731Z,30.29
2017-12-20T18:12:21.335Z,30.29
2017-12-20T18:13:04.256Z,30.22
2017-12-20T18:13:46.649Z,30.31
2017-12-20T18:14:44.651Z,30.22
2017-12-20T18:15:14.044Z,30.13
2017-12-20T18:15:59.711Z,29.95
2017-12-20T18:17:24.940Z,29.76
2017-12-20T18:18:07.797Z,29.41
2017-12-20T18:18:35.740Z,29.41
2017-12-20T18:21:13.959Z,29.26
2017-12-20T18:21:42.011Z,29.27
2017-12-20T18:22:10.356Z,29.27
2017-12-20T18:24:27.170Z,29.45
2017-12-20T18:25:53.320Z,29.41
2017-12-20T18:26:36.969Z,29.45
2017-12-20T18:27:20.734Z,29.19
2017-12-20T18:31:13.946Z,28.96
2017-12-20T18:32:41.991Z,29.09
2017-12-20T18:34:24.931Z,29.02
2017-12-20T18:35:22.752Z,29.02
2017-12-20T18:36:33.330Z,29.06
2017-12-20T18:37:17.233Z,29.09
2017-12-20T18:37:46.649Z,29.21
2017-12-20T18:39:28.626Z,29.45
2017-12-20T18:40:00.712Z,29.49
2017-12-20T18:40:29.687Z,29.41
2017-12-20T18:40:59.658Z,29.39
2017-12-20T18:41:57.938Z,29.43
2017-12-20T18:43:09.559Z,29.74
2017-12-20T18:43:38.757Z,29.86
2017-12-20T18:45:21.506Z,29.36
2017-12-20T18:46:08.648Z,29.05
2017-12-20T18:47:19.569Z,28.83
2017-12-20T18:47:48.042Z,28.8
2017-12-20T18:48:32.226Z,28.98
2017-12-20T18:49:44.298Z,28.68
2017-12-20T18:51:39.534Z,28.31
2017-12-20T18:52:08.700Z,28.17
2017-12-20T18:52:37.575Z,27.87
2017-12-20T18:53:05.844Z,27.77
2017-12-20T18:53:34.183Z,27.74
2017-12-20T18:54:32.135Z,27.65
2017-12-20T18:55:15.678Z,27.82
2017-12-20T18:57:25.955Z,27.75
2017-12-20T18:58:11.148Z,27.65
2017-12-20T18:59:08.718Z,27.31
2017-12-20T18:59:41.258Z,27.24
2017-12-20T19:00:54.006Z,26.85
2017-12-20T19:01:22.895Z,26.85
2017-12-20T19:01:52.569Z,26.57
2017-12-20T19:02:22.256Z,26.3
2017-12-20T19:03:05.365Z,25.97
2017-12-20T19:03:49.487Z,25.79
2017-12-20T19:04:46.544Z,25.46
2017-12-20T19:05:14.443Z,25.42
2017-12-20T19:06:11.879Z,25.24
2017-12-20T19:06:41.318Z,25.14
2017-12-20T19:07:27.212Z,25.08
2017-12-20T19:09:08.771Z,25
2017-12-20T19:09:37.512Z,24.9
2017-12-20T19:10:07.799Z,24.8
2017-12-20T19:10:51.304Z,24.87
2017-12-20T19:11:19.782Z,24.77
2017-12-20T19:11:48.942Z,24.69
2017-12-20T19:12:17.462Z,24.77
2017-12-20T19:13:29.606Z,24.88
2017-12-20T19:13:58.368Z,24.88
2017-12-20T19:14:55.446Z,25
2017-12-20T19:15:39.499Z,24.85
2017-12-20T19:16:08.082Z,24.81
2017-12-20T19:16:36.816Z,24.93
2017-12-20T19:17:19.672Z,24.85
2017-12-20T19:17:47.917Z,24.77
2017-12-20T19:18:32.580Z,24.73
2017-12-20T19:19:01.050Z,24.8
2017-12-20T19:19:45.206Z,24.78
2017-12-20T19:21:11.345Z,24.77
2017-12-20T19:21:43.122Z,24.64
2017-12-20T19:22:26.102Z,24.45
2017-12-20T19:22:54.936Z,24.34
2017-12-20T19:24:08.052Z,24.24
2017-12-20T19:24:52.541Z,24.27
2017-12-20T19:25:22.768Z,24.27
2017-12-20T19:26:07.093Z,24.25
2017-12-20T19:26:49.772Z,24.12
2017-12-20T19:27:18.763Z,24.2
2017-12-20T19:28:31.916Z,24.12
2017-12-20T19:29:00.402Z,24
2017-12-20T19:29:32.496Z,23.87
2017-12-20T19:30:00.435Z,23.95
2017-12-20T19:30:29.172Z,23.79
2017-12-20T19:30:58.220Z,23.91
2017-12-20T19:31:40.788Z,23.94
2017-12-20T19:32:51.962Z,23.78
2017-12-20T19:34:03.755Z,23.8
2017-12-20T19:34:47.331Z,23.83
2017-12-20T19:35:30.460Z,23.84
2017-12-20T19:36:13.518Z,23.84
2017-12-20T19:37:54.685Z,23.68
2017-12-20T19:39:50.235Z,23.6
2017-12-20T19:40:32.932Z,23.6
2017-12-20T19:41:15.677Z,23.61
2017-12-20T19:41:43.706Z,23.63
2017-12-20T19:42:42.624Z,23.78
2017-12-20T19:43:25.888Z,23.78
2017-12-20T19:43:54.898Z,23.88
2017-12-20T19:45:07.348Z,23.83
2017-12-20T19:45:37.390Z,23.76
2017-12-20T19:46:36.157Z,23.84
2017-12-20T19:47:04.667Z,23.83
2017-12-20T19:47:48.498Z,23.76
2017-12-20T19:48:16.562Z,23.76
2017-12-20T19:49:56.308Z,23.43
2017-12-20T19:50:24.380Z,23.46
2017-12-20T19:50:52.856Z,23.47
2017-12-20T19:51:21.816Z,23.42
2017-12-20T19:52:18.811Z,23.4
2017-12-20T19:52:46.846Z,23.5
2017-12-20T19:53:15.917Z,23.42
2017-12-20T19:53:45.211Z,23.42
2017-12-20T19:54:14.726Z,23.42
2017-12-20T19:55:55.924Z,23.54
2017-12-20T19:57:50.030Z,23.61
2017-12-20T19:58:33.185Z,23.72
2017-12-20T19:59:31.437Z,23.7
2017-12-20T20:00:42.465Z,23.76
2017-12-20T20:01:10.500Z,23.8
2017-12-20T20:03:51.813Z,23.98
2017-12-20T20:04:35.735Z,24.02
2017-12-20T20:05:18.715Z,23.97
2017-12-20T20:06:02.115Z,23.93
2017-12-20T20:06:44.999Z,23.88
2017-12-20T20:07:32.185Z,23.93
2017-12-20T20:08:15.316Z,23.93
2017-12-20T20:08:43.974Z,23.94
2017-12-20T20:09:12.363Z,23.93
2017-12-20T20:09:56.030Z,23.93
2017-12-20T20:10:39.557Z,23.91
2017-12-20T20:11:11.201Z,23.98
2017-12-20T20:12:08.287Z,23.94
2017-12-20T20:14:18.881Z,23.91
2017-12-20T20:15:02.300Z,23.88
2017-12-20T20:15:33.135Z,23.76
2017-12-20T20:16:02.252Z,23.79
2017-12-20T20:16:44.830Z,23.69
2017-12-20T20:17:42.696Z,23.75
2017-12-20T20:18:13.960Z,23.75
2017-12-20T20:18:57.506Z,23.63
2017-12-20T20:20:52.914Z,23.43
2017-12-20T20:21:49.878Z,23.4
2017-12-20T20:22:18.446Z,23.35
2017-12-20T20:22:46.868Z,23.48
2017-12-20T20:23:43.961Z,23.38
2017-12-20T20:25:23.648Z,23.54
2017-12-20T20:25:53.248Z,23.53
2017-12-20T20:26:36.592Z,23.54
2017-12-20T20:27:20.790Z,23.48
2017-12-20T20:28:33.299Z,23.57
2017-12-20T20:29:28.092Z,23.66
2017-12-20T20:29:56.115Z,23.72
2017-12-20T20:30:24.476Z,23.73
2017-12-20T20:31:07.596Z,23.8
2017-12-20T20:31:39.424Z,23.85
2017-12-20T20:34:05.985Z,23.38
2017-12-20T20:36:29.828Z,23.46
2017-12-20T20:37:28.113Z,23.43
2017-12-20T20:38:10.982Z,23.32
2017-12-20T20:38:54.732Z,23.27
2017-12-20T20:39:37.799Z,23.05
2017-12-20T20:40:20.368Z,23.05
2017-12-20T20:41:17.907Z,23.13
2017-12-20T20:42:42.918Z,23.16
2017-12-20T20:44:23.421Z,23.05
2017-12-20T20:44:52.055Z,23.01
2017-12-20T20:45:35.120Z,23.12
2017-12-20T20:46:03.361Z,22.91
2017-12-20T20:46:45.916Z,22.76
2017-12-20T20:47:15.181Z,22.58
2017-12-20T20:47:43.142Z,22.45
2017-12-20T20:48:27.209Z,22.05
2017-12-20T20:50:24.687Z,21.19
2017-12-20T20:50:53.603Z,21.09
2017-12-20T20:51:21.907Z,20.99
2017-12-20T20:51:50.676Z,20.88
2017-12-20T20:52:18.614Z,20.87
2017-12-20T20:52:46.684Z,20.74
2017-12-20T20:53:57.760Z,20.7
2017-12-20T20:55:52.544Z,20.69
2017-12-20T20:56:37.379Z,20.72
2017-12-20T20:57:20.583Z,20.7
2017-12-20T20:57:48.603Z,20.69
2017-12-20T20:58:31.681Z,20.73
2017-12-20T20:59:01.335Z,20.64
2017-12-20T21:00:42.505Z,20.61
2017-12-20T21:01:11.480Z,20.66
2017-12-20T21:01:39.804Z,20.64
2017-12-20T21:02:23.141Z,20.57
2017-12-20T21:03:05.701Z,20.51
2017-12-20T21:03:40.831Z,20.52
2017-12-20T21:05:08.962Z,20.39
2017-12-20T21:05:51.733Z,20.35
2017-12-20T21:06:21.388Z,20.36
2017-12-20T21:06:49.730Z,20.32
2017-12-20T21:08:15.959Z,20.43
2017-12-20T21:08:46.529Z,20.59
2017-12-20T21:09:15.217Z,20.57
2017-12-20T21:09:58.919Z,20.62
2017-12-20T21:12:36.527Z,20.67
2017-12-20T21:13:19.503Z,20.72
2017-12-20T21:13:48.242Z,20.77
2017-12-20T21:14:16.168Z,20.72
2017-12-20T21:14:59.140Z,20.79
2017-12-20T21:15:41.674Z,20.69
2017-12-20T21:16:25.441Z,20.82
2017-12-20T21:16:53.360Z,20.84
2017-12-20T21:18:36.753Z,20.76
2017-12-20T21:19:04.773Z,20.7
2017-12-20T21:19:34.181Z,20.8
2017-12-20T21:20:02.983Z,20.74
2017-12-20T21:20:31.412Z,20.84
2017-12-20T21:21:28.887Z,20.88
2017-12-20T21:21:57.786Z,20.82
2017-12-20T21:22:26.704Z,20.79
2017-12-20T21:23:09.956Z,20.85
2017-12-20T21:23:53.006Z,20.72
2017-12-20T21:24:23.127Z,20.72
2017-12-20T21:25:06.552Z,20.69
2017-12-20T21:25:50.192Z,20.74
2017-12-20T21:26:36.188Z,20.73
2017-12-20T21:27:04.263Z,20.72
2017-12-20T21:28:44.164Z,20.89
2017-12-20T21:29:12.588Z,20.84
2017-12-20T21:29:41.032Z,20.95
2017-12-20T21:30:24.090Z,20.88
2017-12-20T21:30:53.244Z,20.77
2017-12-20T21:31:35.792Z,20.74
2017-12-20T21:32:05.420Z,20.69
2017-12-20T21:32:48.712Z,20.72
2017-12-20T21:34:32.004Z,20.8
2017-12-20T21:35:01.878Z,20.85
2017-12-20T21:36:28.061Z,20.84
2017-12-20T21:36:56.512Z,20.72
2017-12-20T21:37:32.868Z,20.73
2017-12-20T21:38:16.085Z,20.66
2017-12-20T21:38:59.379Z,20.69
2017-12-20T21:39:42.360Z,20.61
2017-12-20T21:40:10.820Z,20.67
2017-12-20T21:40:53.364Z,20.69
2017-12-20T21:41:21.898Z,20.72
2017-12-20T21:42:05.730Z,20.7
2017-12-20T21:42:34.156Z,20.55
2017-12-20T21:44:46.201Z,20.69
2017-12-20T21:45:29.833Z,20.67
2017-12-20T21:46:12.796Z,20.72
2017-12-20T21:46:41.069Z,20.7
2017-12-20T21:47:10.342Z,20.7
2017-12-20T21:47:38.483Z,20.7
2017-12-20T21:48:06.789Z,20.69
2017-12-20T21:48:34.679Z,20.7
2017-12-20T21:49:03.732Z,20.79
2017-12-20T21:49:32.030Z,20.69
2017-12-20T21:50:00.043Z,20.73
2017-12-20T21:51:40.056Z,20.72
2017-12-20T21:52:22.616Z,20.8
2017-12-20T21:53:11.009Z,20.77
2017-12-20T21:53:43.548Z,20.89
2017-12-20T21:54:26.090Z,20.88
2017-12-20T21:54:54.431Z,20.89
2017-12-20T21:55:23.316Z,20.88
2017-12-20T21:55:52.273Z,20.88
2017-12-20T21:56:49.333Z,20.88
2017-12-20T21:57:17.869Z,20.84
2017-12-20T21:57:46.299Z,20.85
2017-12-20T21:58:29.196Z,20.84
2017-12-20T21:59:00.278Z,20.89
2017-12-20T22:00:13.208Z,20.91
2017-12-20T22:00:42.891Z,20.84
2017-12-20T22:01:12.133Z,20.76
2017-12-20T22:01:40.589Z,20.84
2017-12-20T22:02:38.274Z,20.89
2017-12-20T22:03:06.732Z,20.91
2017-12-20T22:03:49.271Z,20.84
2017-12-20T22:04:32.441Z,20.89
2017-12-20T22:05:02.566Z,20.92
2017-12-20T22:05:45.268Z,21.04
2017-12-20T22:06:15.282Z,21.07
2017-12-20T22:06:45.283Z,21.09
2017-12-20T22:07:13.706Z,21.09
2017-12-20T22:07:42.054Z,21.12
2017-12-20T22:08:11.313Z,21.03
2017-12-20T22:08:54.881Z,20.98
2017-12-20T22:09:38.663Z,20.99
2017-12-20T22:10:07.155Z,20.87
2017-12-20T22:10:36.182Z,20.88
2017-12-20T22:11:04.604Z,20.82
2017-12-20T22:11:32.641Z,20.87
2017-12-20T22:12:01.887Z,20.82
2017-12-20T22:12:30.447Z,20.73
2017-12-20T22:13:00.415Z,20.7
2017-12-20T22:13:29.971Z,20.69
2017-12-20T22:13:58.838Z,20.7
2017-12-20T22:14:27.226Z,20.73
2017-12-20T22:14:56.462Z,20.72
2017-12-20T22:15:26.520Z,20.69
2017-12-20T22:15:54.771Z,20.72
2017-12-20T22:16:23.650Z,20.74
2017-12-20T22:17:07.954Z,20.62
2017-12-20T22:17:36.800Z,20.73
2017-12-20T22:18:20.213Z,20.72
2017-12-20T22:19:07.850Z,20.52
2017-12-20T22:19:37.062Z,20.57
2017-12-20T22:20:05.089Z,20.52
2017-12-20T22:20:49.454Z,20.64
2017-12-20T22:21:18.003Z,20.66
2017-12-20T22:22:00.563Z,20.73
2017-12-20T22:22:29.366Z,20.66
2017-12-20T22:23:55.286Z,20.62
2017-12-20T22:24:53.892Z,20.58
2017-12-20T22:25:21.893Z,20.55
2017-12-20T22:25:50.562Z,20.51
2017-12-20T22:26:19.590Z,20.43
2017-12-20T22:26:47.901Z,20.52
2017-12-20T22:27:36.597Z,20.59
2017-12-20T22:28:04.713Z,20.55
2017-12-20T22:28:32.640Z,20.48
2017-12-20T22:29:15.431Z,20.43
2017-12-20T22:29:43.901Z,20.52
2017-12-20T22:30:12.320Z,20.55
2017-12-20T22:30:42.660Z,20.64
2017-12-20T22:31:11.445Z,20.62
2017-12-20T22:31:39.409Z,20.67
2017-12-20T22:32:09.027Z,20.7
2017-12-20T22:32:37.039Z,20.66
2017-12-20T22:33:05.483Z,20.62
2017-12-20T22:33:47.932Z,20.64
2017-12-20T22:34:17.074Z,20.62
2017-12-20T22:34:45.638Z,20.57
2017-12-20T22:35:14.810Z,20.55
2017-12-20T22:35:58.566Z,20.55
2017-12-20T22:36:26.920Z,20.5
2017-12-20T22:36:55.226Z,20.51
2017-12-20T22:37:23.660Z,20.38
2017-12-20T22:37:52.438Z,20.31
2017-12-20T22:38:21.253Z,20.26
2017-12-20T22:40:01.217Z,20.17
2017-12-20T22:40:30.015Z,20.26
2017-12-20T22:42:44.615Z,20.2
2017-12-20T22:43:13.651Z,20.18
2017-12-20T22:43:41.779Z,20.23
2017-12-20T22:44:11.380Z,20.29
2017-12-20T22:44:39.926Z,20.23
2017-12-20T22:45:09.117Z,20.26
2017-12-20T22:45:37.838Z,20.23
2017-12-20T22:46:50.230Z,20.14
2017-12-20T22:47:18.139Z,20.16
2017-12-20T22:47:46.142Z,20.14
2017-12-20T22:48:26.897Z,20.18
2017-12-20T22:48:54.905Z,20.02
2017-12-20T22:49:23.576Z,20.02
2017-12-20T22:51:33.266Z,20.02
2017-12-20T22:52:01.630Z,19.95
2017-12-20T22:52:45.023Z,20.08
2017-12-20T22:53:13.772Z,20.08
2017-12-20T22:53:41.722Z,20.11
2017-12-20T22:54:10.151Z,20.17
2017-12-20T22:54:38.581Z,20.28
2017-12-20T22:55:24.897Z,20.16
2017-12-20T22:55:53.693Z,20.11
2017-12-20T22:56:22.480Z,20.13
2017-12-20T22:56:51.143Z,20.11
2017-12-20T22:57:34.370Z,20.2
2017-12-20T22:58:02.488Z,20.11
2017-12-20T22:58:30.935Z,20.03
2017-12-20T22:59:00.327Z,20.06
2017-12-20T22:59:28.257Z,20.03
2017-12-20T23:00:11.258Z,20.11
2017-12-20T23:00:41.230Z,20.05
2017-12-20T23:01:10.564Z,19.98
2017-12-20T23:01:55.022Z,19.99
2017-12-20T23:02:23.685Z,20.01
2017-12-20T23:02:52.516Z,19.91
2017-12-20T23:03:52.051Z,20.02
2017-12-20T23:04:20.330Z,20.08
2017-12-20T23:05:02.859Z,20.1
2017-12-20T23:05:30.874Z,20.03
2017-12-20T23:05:59.321Z,20.1
2017-12-20T23:06:27.733Z,20.01
2017-12-20T23:06:56.669Z,20.03
2017-12-20T23:07:25.829Z,20.01
2017-12-20T23:08:08.298Z,20.03
2017-12-20T23:08:36.217Z,19.88
2017-12-20T23:09:04.537Z,20.05
2017-12-20T23:09:48.218Z,19.99
2017-12-20T23:10:17.535Z,19.95
2017-12-20T23:10:45.448Z,19.91
2017-12-20T23:11:18.906Z,19.91
2017-12-20T23:11:46.847Z,20.01
2017-12-20T23:12:16.396Z,19.96
2017-12-20T23:12:46.080Z,19.91
2017-12-20T23:13:14.233Z,20.1
2017-12-20T23:13:43.339Z,20.02
2017-12-20T23:14:41.717Z,20.1
2017-12-20T23:15:10.481Z,20.02
2017-12-20T23:15:40.167Z,20.08
2017-12-20T23:16:08.784Z,20.03
2017-12-20T23:16:36.724Z,20.05
2017-12-20T23:17:36.623Z,20.13
2017-12-20T23:18:34.138Z,20.18
2017-12-20T23:19:02.160Z,20.21
2017-12-20T23:19:45.851Z,20.05
2017-12-20T23:20:13.903Z,20.13
2017-12-20T23:20:43.763Z,20.13
2017-12-20T23:21:27.636Z,20.02
2017-12-20T23:21:55.961Z,19.98
2017-12-20T23:22:24.662Z,19.96
2017-12-20T23:22:53.103Z,19.95
2017-12-20T23:23:21.040Z,19.96
2017-12-20T23:24:32.253Z,19.96
2017-12-20T23:25:01.933Z,19.94
2017-12-20T23:26:27.679Z,19.88
2017-12-20T23:27:42.326Z,19.84
2017-12-20T23:29:51.377Z,19.92
2017-12-20T23:30:19.726Z,20.03
2017-12-20T23:30:47.800Z,19.96
2017-12-20T23:31:16.414Z,20.03
2017-12-20T23:33:56.270Z,20.05
2017-12-20T23:34:53.944Z,20.11
2017-12-20T23:35:36.488Z,20.08
2017-12-20T23:36:06.095Z,20.11
2017-12-20T23:36:49.014Z,20.17
2017-12-20T23:39:28.046Z,20.17
2017-12-20T23:39:56.518Z,20.17
2017-12-20T23:40:24.836Z,20.13
2017-12-20T23:40:53.551Z,20.2
2017-12-20T23:41:22.467Z,20.18
2017-12-20T23:42:05.004Z,20.31
2017-12-20T23:42:36.835Z,20.32
2017-12-20T23:43:05.284Z,20.39
2017-12-20T23:43:33.647Z,20.36
2017-12-20T23:44:02.186Z,20.38
2017-12-20T23:44:45.344Z,20.35
2017-12-20T23:46:26.530Z,20.57
2017-12-20T23:47:09.528Z,20.55
2017-12-20T23:47:39.571Z,20.52
2017-12-20T23:48:08.365Z,20.57
2017-12-20T23:48:37.378Z,20.64
2017-12-20T23:50:18.250Z,20.66
2017-12-20T23:50:47.130Z,20.64
2017-12-20T23:51:16.578Z,20.69
2017-12-20T23:51:45.854Z,20.62
2017-12-20T23:52:14.716Z,20.69
2017-12-20T23:52:42.735Z,20.72
2017-12-20T23:53:11.193Z,20.62
2017-12-20T23:53:40.195Z,20.67
2017-12-20T23:54:09.175Z,20.58
2017-12-20T23:54:37.772Z,20.66
2017-12-20T23:56:03.666Z,20.7
2017-12-20T23:56:31.700Z,20.64
2017-12-20T23:57:00.215Z,20.7
2017-12-20T23:57:43.546Z,20.64
2017-12-20T23:58:11.583Z,20.74
2017-12-20T23:58:40.829Z,20.73
2017-12-20T23:59:09.837Z,20.67
2017-12-20T23:59:37.714Z,20.74
